sensor_id;sensor_type;location;lat;lon;timestamp;temperature;humidity
2783;DHT22;1399;47.072;15.452;2023-06-14T00:01:04;18.30;64.20
2783;DHT22;1399;47.072;15.452;2023-06-14T00:03:31;18.30;64.30
2783;DHT22;1399;47.072;15.452;2023-06-14T00:05:58;18.30;64.40
2783;DHT22;1399;47.072;15.452;2023-06-14T00:08:25;18.20;63.70
2783;DHT22;1399;47.072;15.452;2023-06-14T00:10:51;18.20;64.50
2783;DHT22;1399;47.072;15.452;2023-06-14T00:13:17;18.20;64.60
2783;DHT22;1399;47.072;15.452;2023-06-14T00:15:43;18.20;64.60
2783;DHT22;1399;47.072;15.452;2023-06-14T00:18:09;18.20;64.70
2783;DHT22;1399;47.072;15.452;2023-06-14T00:20:37;18.20;64.90
2783;DHT22;1399;47.072;15.452;2023-06-14T00:23:03;18.20;64.90
2783;DHT22;1399;47.072;15.452;2023-06-14T00:25:29;18.20;65.10
2783;DHT22;1399;47.072;15.452;2023-06-14T00:27:56;18.10;64.90
2783;DHT22;1399;47.072;15.452;2023-06-14T00:30:22;18.10;65.00
2783;DHT22;1399;47.072;15.452;2023-06-14T00:32:48;18.10;65.10
2783;DHT22;1399;47.072;15.452;2023-06-14T00:35:15;18.10;65.20
2783;DHT22;1399;47.072;15.452;2023-06-14T00:37:41;18.10;65.20
2783;DHT22;1399;47.072;15.452;2023-06-14T00:40:07;18.10;65.40
2783;DHT22;1399;47.072;15.452;2023-06-14T00:42:34;18.10;65.40
2783;DHT22;1399;47.072;15.452;2023-06-14T00:45:00;18.10;65.50
2783;DHT22;1399;47.072;15.452;2023-06-14T00:47:26;18.10;65.60
2783;DHT22;1399;47.072;15.452;2023-06-14T00:49:53;18.10;65.60
2783;DHT22;1399;47.072;15.452;2023-06-14T00:52:22;18.00;65.60
2783;DHT22;1399;47.072;15.452;2023-06-14T00:54:50;18.00;65.60
2783;DHT22;1399;47.072;15.452;2023-06-14T00:57:16;18.00;65.60
2783;DHT22;1399;47.072;15.452;2023-06-14T00:59:44;18.00;65.80
2783;DHT22;1399;47.072;15.452;2023-06-14T01:02:11;18.00;65.90
2783;DHT22;1399;47.072;15.452;2023-06-14T01:04:39;18.00;66.10
2783;DHT22;1399;47.072;15.452;2023-06-14T01:07:25;18.00;66.30
2783;DHT22;1399;47.072;15.452;2023-06-14T01:13:39;18.00;66.60
2783;DHT22;1399;47.072;15.452;2023-06-14T01:16:08;18.00;66.90
2783;DHT22;1399;47.072;15.452;2023-06-14T01:18:36;18.00;67.10
2783;DHT22;1399;47.072;15.452;2023-06-14T01:21:02;17.90;67.10
2783;DHT22;1399;47.072;15.452;2023-06-14T01:23:35;17.90;67.20
2783;DHT22;1399;47.072;15.452;2023-06-14T01:26:01;17.90;67.40
2783;DHT22;1399;47.072;15.452;2023-06-14T01:28:29;17.90;67.40
2783;DHT22;1399;47.072;15.452;2023-06-14T01:31:01;17.90;67.50
2783;DHT22;1399;47.072;15.452;2023-06-14T01:33:32;17.90;67.70
2783;DHT22;1399;47.072;15.452;2023-06-14T01:35:59;17.90;68.60
2783;DHT22;1399;47.072;15.452;2023-06-14T01:38:27;17.90;67.80
2783;DHT22;1399;47.072;15.452;2023-06-14T01:40:56;17.80;67.80
2783;DHT22;1399;47.072;15.452;2023-06-14T01:43:23;17.90;68.00
2783;DHT22;1399;47.072;15.452;2023-06-14T01:45:51;17.90;68.40
2783;DHT22;1399;47.072;15.452;2023-06-14T01:48:19;17.90;68.20
2783;DHT22;1399;47.072;15.452;2023-06-14T01:50:45;17.80;68.20
2783;DHT22;1399;47.072;15.452;2023-06-14T01:53:13;17.80;68.30
2783;DHT22;1399;47.072;15.452;2023-06-14T01:55:38;17.80;68.30
2783;DHT22;1399;47.072;15.452;2023-06-14T01:58:10;17.80;68.60
2783;DHT22;1399;47.072;15.452;2023-06-14T02:00:36;17.80;68.70
2783;DHT22;1399;47.072;15.452;2023-06-14T02:03:02;17.80;68.90
2783;DHT22;1399;47.072;15.452;2023-06-14T02:05:31;17.80;69.00
2783;DHT22;1399;47.072;15.452;2023-06-14T02:07:57;17.70;69.10
2783;DHT22;1399;47.072;15.452;2023-06-14T02:10:23;17.70;69.20
2783;DHT22;1399;47.072;15.452;2023-06-14T02:12:49;17.70;69.40
2783;DHT22;1399;47.072;15.452;2023-06-14T02:15:15;17.70;69.70
2783;DHT22;1399;47.072;15.452;2023-06-14T02:17:48;17.70;69.90
2783;DHT22;1399;47.072;15.452;2023-06-14T02:20:15;17.70;70.00
2783;DHT22;1399;47.072;15.452;2023-06-14T02:22:41;17.70;70.10
2783;DHT22;1399;47.072;15.452;2023-06-14T02:25:08;17.70;70.30
2783;DHT22;1399;47.072;15.452;2023-06-14T02:27:35;17.60;70.40
2783;DHT22;1399;47.072;15.452;2023-06-14T02:30:01;17.60;70.50
2783;DHT22;1399;47.072;15.452;2023-06-14T02:32:27;17.60;70.70
2783;DHT22;1399;47.072;15.452;2023-06-14T02:34:54;17.60;70.80
2783;DHT22;1399;47.072;15.452;2023-06-14T02:37:20;17.60;71.00
2783;DHT22;1399;47.072;15.452;2023-06-14T02:39:46;17.60;71.20
2783;DHT22;1399;47.072;15.452;2023-06-14T02:42:12;17.50;71.20
2783;DHT22;1399;47.072;15.452;2023-06-14T02:44:38;17.50;71.40
2783;DHT22;1399;47.072;15.452;2023-06-14T02:47:04;17.50;71.50
2783;DHT22;1399;47.072;15.452;2023-06-14T02:49:30;17.50;71.60
2783;DHT22;1399;47.072;15.452;2023-06-14T02:51:56;17.50;71.80
2783;DHT22;1399;47.072;15.452;2023-06-14T02:54:22;17.50;72.00
2783;DHT22;1399;47.072;15.452;2023-06-14T02:56:48;17.50;72.20
2783;DHT22;1399;47.072;15.452;2023-06-14T02:59:14;17.40;72.20
2783;DHT22;1399;47.072;15.452;2023-06-14T03:01:40;17.40;72.30
2783;DHT22;1399;47.072;15.452;2023-06-14T03:04:08;17.40;72.40
2783;DHT22;1399;47.072;15.452;2023-06-14T03:06:34;17.40;72.60
2783;DHT22;1399;47.072;15.452;2023-06-14T03:09:01;17.40;72.70
2783;DHT22;1399;47.072;15.452;2023-06-14T03:11:30;17.40;73.70
2783;DHT22;1399;47.072;15.452;2023-06-14T03:13:56;17.40;72.80
2783;DHT22;1399;47.072;15.452;2023-06-14T03:16:22;17.30;72.80
2783;DHT22;1399;47.072;15.452;2023-06-14T03:18:53;17.30;72.90
2783;DHT22;1399;47.072;15.452;2023-06-14T03:21:21;17.30;73.00
2783;DHT22;1399;47.072;15.452;2023-06-14T03:23:48;17.30;73.00
2783;DHT22;1399;47.072;15.452;2023-06-14T03:26:15;17.30;73.20
2783;DHT22;1399;47.072;15.452;2023-06-14T03:28:44;17.30;73.30
2783;DHT22;1399;47.072;15.452;2023-06-14T03:31:15;17.30;73.20
2783;DHT22;1399;47.072;15.452;2023-06-14T03:33:42;17.30;73.10
2783;DHT22;1399;47.072;15.452;2023-06-14T03:36:08;17.30;73.10
2783;DHT22;1399;47.072;15.452;2023-06-14T03:38:34;17.30;73.20
2783;DHT22;1399;47.072;15.452;2023-06-14T03:41:00;17.30;73.20
2783;DHT22;1399;47.072;15.452;2023-06-14T03:43:27;17.30;73.30
2783;DHT22;1399;47.072;15.452;2023-06-14T03:45:53;17.40;73.30
2783;DHT22;1399;47.072;15.452;2023-06-14T03:48:19;17.40;73.30
2783;DHT22;1399;47.072;15.452;2023-06-14T03:50:45;17.40;73.40
2783;DHT22;1399;47.072;15.452;2023-06-14T03:53:10;17.40;73.30
2783;DHT22;1399;47.072;15.452;2023-06-14T03:55:36;17.40;73.30
2783;DHT22;1399;47.072;15.452;2023-06-14T03:58:03;17.40;73.30
2783;DHT22;1399;47.072;15.452;2023-06-14T04:00:29;17.40;73.30
2783;DHT22;1399;47.072;15.452;2023-06-14T04:02:55;17.40;73.30
2783;DHT22;1399;47.072;15.452;2023-06-14T04:05:22;17.40;73.30
2783;DHT22;1399;47.072;15.452;2023-06-14T04:07:48;17.40;73.30
2783;DHT22;1399;47.072;15.452;2023-06-14T04:10:16;17.40;73.30
2783;DHT22;1399;47.072;15.452;2023-06-14T04:12:42;17.40;73.20
2783;DHT22;1399;47.072;15.452;2023-06-14T04:15:09;17.50;73.30
2783;DHT22;1399;47.072;15.452;2023-06-14T04:17:36;17.50;73.20
2783;DHT22;1399;47.072;15.452;2023-06-14T04:20:03;17.50;73.10
2783;DHT22;1399;47.072;15.452;2023-06-14T04:22:31;17.50;73.00
2783;DHT22;1399;47.072;15.452;2023-06-14T04:24:57;17.50;72.80
2783;DHT22;1399;47.072;15.452;2023-06-14T04:27:24;17.50;72.70
2783;DHT22;1399;47.072;15.452;2023-06-14T04:29:55;17.60;72.80
2783;DHT22;1399;47.072;15.452;2023-06-14T04:32:28;17.60;72.70
2783;DHT22;1399;47.072;15.452;2023-06-14T04:35:07;17.60;72.60
2783;DHT22;1399;47.072;15.452;2023-06-14T04:37:33;17.60;73.40
2783;DHT22;1399;47.072;15.452;2023-06-14T04:40:00;17.60;72.50
2783;DHT22;1399;47.072;15.452;2023-06-14T04:42:27;17.50;72.50
2783;DHT22;1399;47.072;15.452;2023-06-14T04:44:56;17.50;72.50
2783;DHT22;1399;47.072;15.452;2023-06-14T04:47:23;17.50;72.50
2783;DHT22;1399;47.072;15.452;2023-06-14T04:49:59;17.50;72.50
2783;DHT22;1399;47.072;15.452;2023-06-14T04:52:26;17.50;72.60
2783;DHT22;1399;47.072;15.452;2023-06-14T04:54:52;17.50;72.70
2783;DHT22;1399;47.072;15.452;2023-06-14T04:57:19;17.50;72.70
2783;DHT22;1399;47.072;15.452;2023-06-14T04:59:48;17.50;72.70
2783;DHT22;1399;47.072;15.452;2023-06-14T05:02:23;17.50;72.70
2783;DHT22;1399;47.072;15.452;2023-06-14T05:04:50;17.50;72.70
2783;DHT22;1399;47.072;15.452;2023-06-14T05:07:16;17.50;72.80
2783;DHT22;1399;47.072;15.452;2023-06-14T05:09:42;17.50;72.80
2783;DHT22;1399;47.072;15.452;2023-06-14T05:12:08;17.50;72.80
2783;DHT22;1399;47.072;15.452;2023-06-14T05:14:34;17.50;72.80
2783;DHT22;1399;47.072;15.452;2023-06-14T05:17:00;17.50;72.80
2783;DHT22;1399;47.072;15.452;2023-06-14T05:19:28;17.60;72.90
2783;DHT22;1399;47.072;15.452;2023-06-14T05:21:54;17.60;72.80
2783;DHT22;1399;47.072;15.452;2023-06-14T05:24:19;17.60;73.70
2783;DHT22;1399;47.072;15.452;2023-06-14T05:26:46;17.60;72.60
2783;DHT22;1399;47.072;15.452;2023-06-14T05:29:12;17.70;72.70
2783;DHT22;1399;47.072;15.452;2023-06-14T05:31:38;17.70;72.60
2783;DHT22;1399;47.072;15.452;2023-06-14T05:34:04;17.70;72.50
2783;DHT22;1399;47.072;15.452;2023-06-14T05:36:30;17.70;72.60
2783;DHT22;1399;47.072;15.452;2023-06-14T05:38:56;17.80;72.80
2783;DHT22;1399;47.072;15.452;2023-06-14T05:41:25;17.80;72.70
2783;DHT22;1399;47.072;15.452;2023-06-14T05:43:52;17.80;72.60
2783;DHT22;1399;47.072;15.452;2023-06-14T05:46:18;17.80;72.60
2783;DHT22;1399;47.072;15.452;2023-06-14T05:48:50;17.80;72.60
2783;DHT22;1399;47.072;15.452;2023-06-14T05:51:16;17.80;72.60
2783;DHT22;1399;47.072;15.452;2023-06-14T05:53:47;17.90;72.50
2783;DHT22;1399;47.072;15.452;2023-06-14T05:56:17;17.90;72.50
2783;DHT22;1399;47.072;15.452;2023-06-14T05:58:46;17.90;72.50
2783;DHT22;1399;47.072;15.452;2023-06-14T06:01:13;17.90;72.60
2783;DHT22;1399;47.072;15.452;2023-06-14T06:03:39;17.90;72.60
2783;DHT22;1399;47.072;15.452;2023-06-14T06:06:05;17.90;72.60
2783;DHT22;1399;47.072;15.452;2023-06-14T06:08:32;17.90;72.80
2783;DHT22;1399;47.072;15.452;2023-06-14T06:10:58;17.90;73.00
2783;DHT22;1399;47.072;15.452;2023-06-14T06:13:25;17.90;73.30
2783;DHT22;1399;47.072;15.452;2023-06-14T06:15:51;17.90;73.30
2783;DHT22;1399;47.072;15.452;2023-06-14T06:18:17;18.00;73.40
2783;DHT22;1399;47.072;15.452;2023-06-14T06:20:43;18.00;73.50
2783;DHT22;1399;47.072;15.452;2023-06-14T06:23:09;18.00;73.70
2783;DHT22;1399;47.072;15.452;2023-06-14T06:25:35;18.00;73.90
2783;DHT22;1399;47.072;15.452;2023-06-14T06:28:01;18.00;74.10
2783;DHT22;1399;47.072;15.452;2023-06-14T06:30:27;18.00;74.30
2783;DHT22;1399;47.072;15.452;2023-06-14T06:32:53;18.00;74.60
2783;DHT22;1399;47.072;15.452;2023-06-14T06:35:18;18.00;74.90
2783;DHT22;1399;47.072;15.452;2023-06-14T06:37:44;18.10;75.10
2783;DHT22;1399;47.072;15.452;2023-06-14T06:40:10;18.10;75.10
2783;DHT22;1399;47.072;15.452;2023-06-14T06:42:36;18.10;75.10
2783;DHT22;1399;47.072;15.452;2023-06-14T06:45:03;18.10;74.90
2783;DHT22;1399;47.072;15.452;2023-06-14T06:47:28;18.20;74.80
2783;DHT22;1399;47.072;15.452;2023-06-14T06:49:54;18.20;74.70
2783;DHT22;1399;47.072;15.452;2023-06-14T06:52:20;18.10;74.70
2783;DHT22;1399;47.072;15.452;2023-06-14T06:54:46;18.20;75.00
2783;DHT22;1399;47.072;15.452;2023-06-14T06:57:12;18.20;75.00
2783;DHT22;1399;47.072;15.452;2023-06-14T06:59:38;18.20;75.30
2783;DHT22;1399;47.072;15.452;2023-06-14T07:02:04;18.20;75.30
2783;DHT22;1399;47.072;15.452;2023-06-14T07:04:30;18.20;75.20
2783;DHT22;1399;47.072;15.452;2023-06-14T07:06:56;18.20;75.30
2783;DHT22;1399;47.072;15.452;2023-06-14T07:09:22;18.20;75.10
2783;DHT22;1399;47.072;15.452;2023-06-14T07:11:48;18.20;74.80
2783;DHT22;1399;47.072;15.452;2023-06-14T07:14:14;18.20;74.30
2783;DHT22;1399;47.072;15.452;2023-06-14T07:16:40;18.20;73.80
2783;DHT22;1399;47.072;15.452;2023-06-14T07:19:06;18.20;73.20
2783;DHT22;1399;47.072;15.452;2023-06-14T07:21:32;18.30;73.10
2783;DHT22;1399;47.072;15.452;2023-06-14T07:23:58;18.20;72.80
2783;DHT22;1399;47.072;15.452;2023-06-14T07:26:24;18.30;72.80
2783;DHT22;1399;47.072;15.452;2023-06-14T07:28:51;18.30;72.50
2783;DHT22;1399;47.072;15.452;2023-06-14T07:31:17;18.30;71.90
2783;DHT22;1399;47.072;15.452;2023-06-14T07:33:44;18.40;71.70
2783;DHT22;1399;47.072;15.452;2023-06-14T07:36:10;18.40;71.40
2783;DHT22;1399;47.072;15.452;2023-06-14T07:38:36;18.40;71.40
2783;DHT22;1399;47.072;15.452;2023-06-14T07:41:03;18.40;71.40
2783;DHT22;1399;47.072;15.452;2023-06-14T07:43:29;18.40;71.00
2783;DHT22;1399;47.072;15.452;2023-06-14T07:45:55;18.40;70.80
2783;DHT22;1399;47.072;15.452;2023-06-14T07:48:22;18.40;70.70
2783;DHT22;1399;47.072;15.452;2023-06-14T07:50:48;18.30;70.70
2783;DHT22;1399;47.072;15.452;2023-06-14T07:53:14;18.40;70.80
2783;DHT22;1399;47.072;15.452;2023-06-14T07:55:40;18.30;70.80
2783;DHT22;1399;47.072;15.452;2023-06-14T07:58:07;18.30;70.70
2783;DHT22;1399;47.072;15.452;2023-06-14T08:00:33;18.30;70.70
2783;DHT22;1399;47.072;15.452;2023-06-14T08:02:59;18.30;70.60
2783;DHT22;1399;47.072;15.452;2023-06-14T08:05:26;18.30;70.60
2783;DHT22;1399;47.072;15.452;2023-06-14T08:07:52;18.30;70.70
2783;DHT22;1399;47.072;15.452;2023-06-14T08:10:20;18.40;70.70
2783;DHT22;1399;47.072;15.452;2023-06-14T08:12:46;18.30;70.50
2783;DHT22;1399;47.072;15.452;2023-06-14T08:15:12;18.30;70.40
2783;DHT22;1399;47.072;15.452;2023-06-14T08:17:37;18.30;70.40
2783;DHT22;1399;47.072;15.452;2023-06-14T08:20:04;18.30;70.30
2783;DHT22;1399;47.072;15.452;2023-06-14T08:22:31;18.30;70.30
2783;DHT22;1399;47.072;15.452;2023-06-14T08:25:00;18.30;70.30
2783;DHT22;1399;47.072;15.452;2023-06-14T08:27:27;18.30;70.20
2783;DHT22;1399;47.072;15.452;2023-06-14T08:29:53;18.30;70.20
2783;DHT22;1399;47.072;15.452;2023-06-14T08:32:19;18.30;70.20
2783;DHT22;1399;47.072;15.452;2023-06-14T08:34:45;18.30;70.40
2783;DHT22;1399;47.072;15.452;2023-06-14T08:37:10;18.30;70.50
2783;DHT22;1399;47.072;15.452;2023-06-14T08:39:36;18.30;70.70
2783;DHT22;1399;47.072;15.452;2023-06-14T08:42:03;18.40;70.90
2783;DHT22;1399;47.072;15.452;2023-06-14T08:44:30;18.30;70.90
2783;DHT22;1399;47.072;15.452;2023-06-14T08:46:56;18.30;71.00
2783;DHT22;1399;47.072;15.452;2023-06-14T08:49:26;18.30;71.30
2783;DHT22;1399;47.072;15.452;2023-06-14T08:52:00;18.40;71.50
2783;DHT22;1399;47.072;15.452;2023-06-14T08:54:27;18.40;71.60
2783;DHT22;1399;47.072;15.452;2023-06-14T08:56:56;18.40;71.60
2783;DHT22;1399;47.072;15.452;2023-06-14T08:59:28;18.50;71.50
2783;DHT22;1399;47.072;15.452;2023-06-14T09:01:54;18.50;71.50
2783;DHT22;1399;47.072;15.452;2023-06-14T09:04:21;18.50;71.60
2783;DHT22;1399;47.072;15.452;2023-06-14T09:06:47;18.60;71.70
2783;DHT22;1399;47.072;15.452;2023-06-14T09:09:21;18.60;71.60
2783;DHT22;1399;47.072;15.452;2023-06-14T09:11:50;18.70;71.70
2783;DHT22;1399;47.072;15.452;2023-06-14T09:14:15;18.70;71.90
2783;DHT22;1399;47.072;15.452;2023-06-14T09:16:41;18.80;71.90
2783;DHT22;1399;47.072;15.452;2023-06-14T09:19:07;18.80;71.70
2783;DHT22;1399;47.072;15.452;2023-06-14T09:21:36;18.90;71.60
2783;DHT22;1399;47.072;15.452;2023-06-14T09:24:03;18.90;71.50
2783;DHT22;1399;47.072;15.452;2023-06-14T09:26:30;18.90;71.30
2783;DHT22;1399;47.072;15.452;2023-06-14T09:28:55;18.90;71.30
2783;DHT22;1399;47.072;15.452;2023-06-14T09:31:21;18.90;71.20
2783;DHT22;1399;47.072;15.452;2023-06-14T09:33:51;18.90;71.00
2783;DHT22;1399;47.072;15.452;2023-06-14T09:36:25;18.80;70.80
2783;DHT22;1399;47.072;15.452;2023-06-14T09:38:56;18.80;70.90
2783;DHT22;1399;47.072;15.452;2023-06-14T09:41:42;18.90;70.90
2783;DHT22;1399;47.072;15.452;2023-06-14T09:44:10;18.90;70.80
2783;DHT22;1399;47.072;15.452;2023-06-14T09:46:37;18.90;70.60
2783;DHT22;1399;47.072;15.452;2023-06-14T09:49:04;19.00;70.50
2783;DHT22;1399;47.072;15.452;2023-06-14T09:51:30;19.00;70.30
2783;DHT22;1399;47.072;15.452;2023-06-14T09:54:06;19.00;70.20
2783;DHT22;1399;47.072;15.452;2023-06-14T09:56:36;19.10;70.10
2783;DHT22;1399;47.072;15.452;2023-06-14T09:59:05;19.20;70.00
2783;DHT22;1399;47.072;15.452;2023-06-14T10:01:39;19.20;69.70
2783;DHT22;1399;47.072;15.452;2023-06-14T10:04:07;19.20;69.50
2783;DHT22;1399;47.072;15.452;2023-06-14T10:06:36;19.30;69.50
2783;DHT22;1399;47.072;15.452;2023-06-14T10:09:08;19.30;69.30
2783;DHT22;1399;47.072;15.452;2023-06-14T10:11:35;19.40;69.30
2783;DHT22;1399;47.072;15.452;2023-06-14T10:14:04;19.60;69.20
2783;DHT22;1399;47.072;15.452;2023-06-14T10:16:52;19.70;69.00
2783;DHT22;1399;47.072;15.452;2023-06-14T10:19:45;19.80;68.40
2783;DHT22;1399;47.072;15.452;2023-06-14T10:22:40;19.90;68.10
2783;DHT22;1399;47.072;15.452;2023-06-14T10:25:13;20.00;67.90
2783;DHT22;1399;47.072;15.452;2023-06-14T10:27:39;20.00;67.60
2783;DHT22;1399;47.072;15.452;2023-06-14T10:30:11;20.10;67.20
2783;DHT22;1399;47.072;15.452;2023-06-14T10:33:03;20.10;66.40
2783;DHT22;1399;47.072;15.452;2023-06-14T10:35:29;20.10;66.00
2783;DHT22;1399;47.072;15.452;2023-06-14T10:37:55;20.10;66.00
2783;DHT22;1399;47.072;15.452;2023-06-14T10:40:31;20.10;65.80
2783;DHT22;1399;47.072;15.452;2023-06-14T10:42:59;20.10;65.80
2783;DHT22;1399;47.072;15.452;2023-06-14T10:45:25;20.10;65.90
2783;DHT22;1399;47.072;15.452;2023-06-14T10:47:51;20.20;65.90
2783;DHT22;1399;47.072;15.452;2023-06-14T10:50:27;20.20;65.80
2783;DHT22;1399;47.072;15.452;2023-06-14T10:52:56;20.30;65.70
2783;DHT22;1399;47.072;15.452;2023-06-14T10:55:22;20.30;66.50
2783;DHT22;1399;47.072;15.452;2023-06-14T10:57:55;20.30;65.50
2783;DHT22;1399;47.072;15.452;2023-06-14T11:00:25;20.30;65.30
2783;DHT22;1399;47.072;15.452;2023-06-14T11:11:00;20.70;64.60
2783;DHT22;1399;47.072;15.452;2023-06-14T11:13:27;20.70;64.00
2783;DHT22;1399;47.072;15.452;2023-06-14T11:15:52;20.90;63.80
2783;DHT22;1399;47.072;15.452;2023-06-14T11:18:19;20.90;63.50
2783;DHT22;1399;47.072;15.452;2023-06-14T11:20:50;21.00;63.40
2783;DHT22;1399;47.072;15.452;2023-06-14T11:23:15;21.00;63.10
2783;DHT22;1399;47.072;15.452;2023-06-14T11:25:41;20.90;62.90
2783;DHT22;1399;47.072;15.452;2023-06-14T11:28:07;21.00;63.00
2783;DHT22;1399;47.072;15.452;2023-06-14T11:30:33;20.90;62.90
2783;DHT22;1399;47.072;15.452;2023-06-14T11:32:59;21.00;62.90
2783;DHT22;1399;47.072;15.452;2023-06-14T11:35:26;21.00;62.80
2783;DHT22;1399;47.072;15.452;2023-06-14T11:37:55;21.00;62.70
2783;DHT22;1399;47.072;15.452;2023-06-14T11:40:26;21.00;62.60
2783;DHT22;1399;47.072;15.452;2023-06-14T11:43:02;21.10;62.50
2783;DHT22;1399;47.072;15.452;2023-06-14T11:45:29;21.10;62.30
2783;DHT22;1399;47.072;15.452;2023-06-14T11:47:56;21.10;62.10
2783;DHT22;1399;47.072;15.452;2023-06-14T11:50:22;21.10;61.90
2783;DHT22;1399;47.072;15.452;2023-06-14T11:52:59;21.20;61.80
2783;DHT22;1399;47.072;15.452;2023-06-14T11:55:39;21.20;61.70
2783;DHT22;1399;47.072;15.452;2023-06-14T11:58:06;21.20;62.50
2783;DHT22;1399;47.072;15.452;2023-06-14T12:00:32;21.20;62.40
2783;DHT22;1399;47.072;15.452;2023-06-14T12:03:01;21.20;61.40
2783;DHT22;1399;47.072;15.452;2023-06-14T12:05:28;21.30;61.30
2783;DHT22;1399;47.072;15.452;2023-06-14T12:08:03;21.30;61.20
2783;DHT22;1399;47.072;15.452;2023-06-14T12:10:39;21.30;61.00
2783;DHT22;1399;47.072;15.452;2023-06-14T12:13:07;21.30;60.80
2783;DHT22;1399;47.072;15.452;2023-06-14T12:15:32;21.40;60.90
2783;DHT22;1399;47.072;15.452;2023-06-14T12:17:58;21.40;60.80
2783;DHT22;1399;47.072;15.452;2023-06-14T12:20:29;21.40;60.70
2783;DHT22;1399;47.072;15.452;2023-06-14T12:22:58;21.40;60.70
2783;DHT22;1399;47.072;15.452;2023-06-14T12:25:35;21.40;60.60
2783;DHT22;1399;47.072;15.452;2023-06-14T12:28:07;21.40;60.50
2783;DHT22;1399;47.072;15.452;2023-06-14T12:30:34;21.40;60.50
2783;DHT22;1399;47.072;15.452;2023-06-14T12:33:02;21.40;60.40
2783;DHT22;1399;47.072;15.452;2023-06-14T12:35:28;21.40;60.40
2783;DHT22;1399;47.072;15.452;2023-06-14T12:37:54;21.50;60.50
2783;DHT22;1399;47.072;15.452;2023-06-14T12:40:19;21.50;60.20
2783;DHT22;1399;47.072;15.452;2023-06-14T12:42:46;21.50;60.20
2783;DHT22;1399;47.072;15.452;2023-06-14T12:45:14;21.50;60.20
2783;DHT22;1399;47.072;15.452;2023-06-14T12:47:40;21.50;60.10
2783;DHT22;1399;47.072;15.452;2023-06-14T12:50:06;21.50;60.00
2783;DHT22;1399;47.072;15.452;2023-06-14T12:52:33;21.50;59.90
2783;DHT22;1399;47.072;15.452;2023-06-14T12:55:03;21.60;60.00
2783;DHT22;1399;47.072;15.452;2023-06-14T12:57:29;21.60;60.10
2783;DHT22;1399;47.072;15.452;2023-06-14T12:59:55;21.60;60.20
2783;DHT22;1399;47.072;15.452;2023-06-14T13:02:21;21.60;60.10
2783;DHT22;1399;47.072;15.452;2023-06-14T13:04:51;21.60;60.20
2783;DHT22;1399;47.072;15.452;2023-06-14T13:07:17;21.60;60.30
2783;DHT22;1399;47.072;15.452;2023-06-14T13:09:43;21.60;60.60
2783;DHT22;1399;47.072;15.452;2023-06-14T13:12:12;21.60;60.70
2783;DHT22;1399;47.072;15.452;2023-06-14T13:14:41;21.60;60.80
2783;DHT22;1399;47.072;15.452;2023-06-14T13:17:10;21.60;60.70
2783;DHT22;1399;47.072;15.452;2023-06-14T13:19:36;21.60;60.70
2783;DHT22;1399;47.072;15.452;2023-06-14T13:22:02;21.60;60.70
2783;DHT22;1399;47.072;15.452;2023-06-14T13:24:28;21.70;60.80
2783;DHT22;1399;47.072;15.452;2023-06-14T13:26:55;21.60;60.80
2783;DHT22;1399;47.072;15.452;2023-06-14T13:29:23;21.60;60.90
2783;DHT22;1399;47.072;15.452;2023-06-14T13:31:49;21.60;61.00
2783;DHT22;1399;47.072;15.452;2023-06-14T13:34:15;21.60;61.10
2783;DHT22;1399;47.072;15.452;2023-06-14T13:36:40;21.60;61.20
2783;DHT22;1399;47.072;15.452;2023-06-14T13:39:06;21.60;61.40
2783;DHT22;1399;47.072;15.452;2023-06-14T13:41:32;21.60;61.40
2783;DHT22;1399;47.072;15.452;2023-06-14T13:44:00;21.70;61.30
2783;DHT22;1399;47.072;15.452;2023-06-14T13:46:26;21.70;61.20
2783;DHT22;1399;47.072;15.452;2023-06-14T13:48:52;21.70;61.00
2783;DHT22;1399;47.072;15.452;2023-06-14T13:51:18;21.70;60.90
2783;DHT22;1399;47.072;15.452;2023-06-14T13:53:51;21.70;60.90
2783;DHT22;1399;47.072;15.452;2023-06-14T13:56:18;21.80;61.00
2783;DHT22;1399;47.072;15.452;2023-06-14T13:58:44;21.80;61.00
2783;DHT22;1399;47.072;15.452;2023-06-14T14:01:11;21.70;61.00
2783;DHT22;1399;47.072;15.452;2023-06-14T14:03:37;21.70;60.90
2783;DHT22;1399;47.072;15.452;2023-06-14T14:06:03;21.70;60.90
2783;DHT22;1399;47.072;15.452;2023-06-14T14:08:29;21.80;61.00
2783;DHT22;1399;47.072;15.452;2023-06-14T14:10:56;21.80;61.00
2783;DHT22;1399;47.072;15.452;2023-06-14T14:13:22;21.80;60.70
2783;DHT22;1399;47.072;15.452;2023-06-14T14:15:48;21.80;60.70
2783;DHT22;1399;47.072;15.452;2023-06-14T14:18:18;21.80;60.70
2783;DHT22;1399;47.072;15.452;2023-06-14T14:20:44;21.90;60.90
2783;DHT22;1399;47.072;15.452;2023-06-14T14:23:09;21.90;61.00
2783;DHT22;1399;47.072;15.452;2023-06-14T14:25:35;21.90;60.70
2783;DHT22;1399;47.072;15.452;2023-06-14T14:28:01;21.90;60.50
2783;DHT22;1399;47.072;15.452;2023-06-14T14:30:27;21.90;60.50
2783;DHT22;1399;47.072;15.452;2023-06-14T14:32:53;21.90;60.70
2783;DHT22;1399;47.072;15.452;2023-06-14T14:35:19;21.80;60.70
2783;DHT22;1399;47.072;15.452;2023-06-14T14:37:45;21.80;60.80
2783;DHT22;1399;47.072;15.452;2023-06-14T14:40:12;21.80;60.90
2783;DHT22;1399;47.072;15.452;2023-06-14T14:42:37;21.80;61.00
2783;DHT22;1399;47.072;15.452;2023-06-14T14:45:03;21.80;61.00
2783;DHT22;1399;47.072;15.452;2023-06-14T14:47:29;21.80;61.00
2783;DHT22;1399;47.072;15.452;2023-06-14T14:49:55;21.80;60.90
2783;DHT22;1399;47.072;15.452;2023-06-14T14:52:21;21.80;61.00
2783;DHT22;1399;47.072;15.452;2023-06-14T14:54:46;21.80;60.90
2783;DHT22;1399;47.072;15.452;2023-06-14T14:57:12;21.90;61.10
2783;DHT22;1399;47.072;15.452;2023-06-14T14:59:38;21.90;61.00
2783;DHT22;1399;47.072;15.452;2023-06-14T15:02:04;21.90;60.90
2783;DHT22;1399;47.072;15.452;2023-06-14T15:04:30;21.90;60.70
2783;DHT22;1399;47.072;15.452;2023-06-14T15:06:57;21.90;60.70
2783;DHT22;1399;47.072;15.452;2023-06-14T15:09:23;21.90;60.80
2783;DHT22;1399;47.072;15.452;2023-06-14T15:11:49;21.80;60.80
2783;DHT22;1399;47.072;15.452;2023-06-14T15:14:14;21.80;61.00
2783;DHT22;1399;47.072;15.452;2023-06-14T15:16:41;21.70;61.00
2783;DHT22;1399;47.072;15.452;2023-06-14T15:19:07;21.60;61.00
2783;DHT22;1399;47.072;15.452;2023-06-14T15:21:33;21.60;61.20
2783;DHT22;1399;47.072;15.452;2023-06-14T15:23:59;21.60;61.40
2783;DHT22;1399;47.072;15.452;2023-06-14T15:27:19;21.60;61.40
2783;DHT22;1399;47.072;15.452;2023-06-14T15:29:46;21.50;61.40
2783;DHT22;1399;47.072;15.452;2023-06-14T15:32:12;21.50;61.40
2783;DHT22;1399;47.072;15.452;2023-06-14T15:34:38;21.50;61.50
2783;DHT22;1399;47.072;15.452;2023-06-14T15:37:06;21.50;61.50
2783;DHT22;1399;47.072;15.452;2023-06-14T15:39:32;21.50;61.50
2783;DHT22;1399;47.072;15.452;2023-06-14T15:41:58;21.50;61.50
2783;DHT22;1399;47.072;15.452;2023-06-14T15:44:25;21.50;61.40
2783;DHT22;1399;47.072;15.452;2023-06-14T15:46:51;21.50;61.40
2783;DHT22;1399;47.072;15.452;2023-06-14T15:49:16;21.40;61.30
2783;DHT22;1399;47.072;15.452;2023-06-14T15:51:43;21.40;61.50
2783;DHT22;1399;47.072;15.452;2023-06-14T15:54:09;21.40;61.50
2783;DHT22;1399;47.072;15.452;2023-06-14T15:56:35;21.30;61.70
2783;DHT22;1399;47.072;15.452;2023-06-14T15:59:00;21.30;61.80